Time;durP1;ratioP1;P1;durP2;ratioP2;P2;SDS_P1;SDS_P2;PMS_P1;PMS_P2;Temp;Humidity;BMP_temperature;BMP_pressure;BME280_temperature;BME280_humidity;BME280_pressure;Samples;Min_cycle;Max_cycle;Signal;HPM_P1;HPM_P2
2022/11/19 00:00:39;;;;;;;;;16.75;12.75;;;;;9.47;61.53;100471.75;6340761;22;45305;-63
2022/11/19 00:03:05;;;;;;;;;13.75;13.00;;;;;9.45;61.91;100481.38;6342425;22;45536;-63
2022/11/19 00:05:30;;;;;;;;;13.75;11.75;;;;;9.43;61.64;100485.75;6342462;22;45261;-63
2022/11/19 00:07:55;;;;;;;;;15.75;11.25;;;;;9.38;61.73;100477.97;6341750;22;45239;-63
2022/11/19 00:10:20;;;;;;;;;11.50;11.50;;;;;9.35;61.76;100480.63;6341638;22;45158;-63
2022/11/19 00:12:55;;;;;;;;;9.75;8.75;;;;;9.34;61.85;100485.91;6342184;22;45131;-63
2022/11/19 00:15:23;;;;;;;;;12.50;10.75;;;;;9.26;61.85;100476.38;6342258;22;45275;-63
2022/11/19 00:17:49;;;;;;;;;11.75;10.75;;;;;9.25;62.04;100476.41;6341442;22;45281;-63
2022/11/19 00:20:16;;;;;;;;;12.25;10.75;;;;;9.22;62.09;100479.94;6341726;22;45359;-64
2022/11/19 00:22:42;;;;;;;;;10.00;8.75;;;;;9.21;62.06;100482.56;6341622;22;45256;-63
2022/11/19 00:25:08;;;;;;;;;11.00;9.25;;;;;9.21;61.99;100475.56;6341813;22;45151;-63
2022/11/19 00:27:33;;;;;;;;;11.25;8.00;;;;;9.23;61.77;100478.16;6341893;22;46000;-63
2022/11/19 00:29:58;;;;;;;;;8.00;8.00;;;;;9.24;61.91;100479.91;6341868;22;45242;-63
2022/11/19 00:32:24;;;;;;;;;7.50;7.00;;;;;9.24;61.92;100472.03;6339988;22;45227;-63
2022/11/19 00:34:49;;;;;;;;;10.00;8.25;;;;;9.23;62.02;100465.06;6342136;22;45299;-63
2022/11/19 00:37:14;;;;;;;;;7.00;7.00;;;;;9.20;62.07;100468.59;6341693;22;46024;-62
2022/11/19 00:39:40;;;;;;;;;7.75;5.75;;;;;9.24;61.92;100469.41;6340861;22;45199;-63
2022/11/19 00:42:05;;;;;;;;;10.00;9.75;;;;;9.24;61.89;100469.41;6341508;22;45236;-63
2022/11/19 00:44:30;;;;;;;;;9.50;8.00;;;;;9.22;62.02;100468.56;6342090;22;45297;-63
2022/11/19 00:46:56;;;;;;;;;9.75;7.50;;;;;9.27;61.80;100479.88;6341277;22;45917;-63
2022/11/19 00:49:21;;;;;;;;;11.00;9.50;;;;;9.27;61.69;100477.25;6341820;22;45166;-63
2022/11/19 00:51:46;;;;;;;;;12.75;9.25;;;;;9.29;61.95;100477.22;6341438;22;45123;-63
2022/11/19 00:54:12;;;;;;;;;8.25;7.75;;;;;9.31;61.82;100478.94;6341485;22;52953;-63
2022/11/19 00:56:37;;;;;;;;;9.75;8.00;;;;;9.31;61.77;100476.31;6341432;22;46030;-63
2022/11/19 00:59:02;;;;;;;;;2.75;2.00;;;;;9.32;61.69;100478.06;6341514;22;45245;-63
2022/11/19 01:01:28;;;;;;;;;9.00;8.00;;;;;9.32;62.01;100475.44;6340015;22;45179;-63
2022/11/19 01:03:54;;;;;;;;;8.00;7.75;;;;;9.34;61.95;100484.13;6341853;22;45240;-63
2022/11/19 01:06:21;;;;;;;;;10.75;10.75;;;;;9.37;62.06;100488.47;6341694;22;46269;-63
2022/11/19 01:08:49;;;;;;;;;8.75;7.00;;;;;9.35;61.73;100482.41;6341281;22;45361;-63
2022/11/19 01:11:20;;;;;;;;;10.50;7.25;;;;;9.39;61.78;100489.31;6341546;22;45231;-63
2022/11/19 01:13:46;;;;;;;;;10.00;9.25;;;;;9.39;61.56;100495.44;6341682;22;45287;-63
2022/11/19 01:16:14;;;;;;;;;11.75;8.00;;;;;9.40;61.73;100491.06;6341531;22;45359;-64
2022/11/19 01:18:41;;;;;;;;;11.75;11.25;;;;;9.40;61.79;100493.69;6341228;22;45183;-63
2022/11/19 01:21:09;;;;;;;;;8.00;8.00;;;;;9.38;61.92;100493.72;6342066;22;45257;-63
2022/11/19 01:23:35;;;;;;;;;8.50;8.00;;;;;9.39;61.67;100499.81;6341124;22;45400;-63
2022/11/19 01:26:00;;;;;;;;;14.25;9.50;;;;;9.35;61.79;100498.13;6341386;22;45934;-63
2022/11/19 01:28:26;;;;;;;;;13.50;11.25;;;;;9.34;61.72;100492.00;6339160;22;45240;-63
2022/11/19 01:30:52;;;;;;;;;12.00;11.00;;;;;9.33;61.78;100498.13;6341771;22;45285;-63
2022/11/19 01:33:18;;;;;;;;;15.75;13.25;;;;;9.37;61.90;100505.09;6341327;22;45520;-63
2022/11/19 01:35:43;;;;;;;;;11.50;11.50;;;;;9.37;61.28;100510.34;6341111;22;45990;-63
2022/11/19 01:38:09;;;;;;;;;14.50;11.00;;;;;9.36;61.75;100495.47;6341196;22;45243;-63
2022/11/19 01:40:42;;;;;;;;;10.75;9.50;;;;;9.33;61.66;100497.28;6341998;22;45306;-63
2022/11/19 01:43:12;;;;;;;;;13.00;10.50;;;;;9.34;61.56;100506.88;6339369;22;45193;-63
2022/11/19 01:45:43;;;;;;;;;15.75;14.00;;;;;9.32;61.60;100500.78;6340835;22;46094;-63
2022/11/19 01:48:12;;;;;;;;;13.75;13.75;;;;;9.35;61.80;100503.38;6340977;22;45274;-63
2022/11/19 01:50:44;;;;;;;;;13.50;11.00;;;;;9.32;61.85;100504.28;6340924;22;45100;-63
2022/11/19 01:53:10;;;;;;;;;14.50;13.50;;;;;9.31;61.54;100506.91;6339021;22;45437;-63
2022/11/19 01:55:37;;;;;;;;;19.00;12.50;;;;;9.29;61.90;100511.31;6339323;22;48390;-63
2022/11/19 01:58:05;;;;;;;;;9.00;8.75;;;;;9.27;61.71;100516.59;6340827;22;45208;-63
2022/11/19 02:00:30;;;;;;;;;14.25;14.25;;;;;9.21;62.06;100516.66;6341680;22;45187;-63
2022/11/19 02:02:55;;;;;;;;;13.00;11.00;;;;;9.17;61.99;100514.94;6341193;22;45419;-63
2022/11/19 02:05:22;;;;;;;;;16.25;13.00;;;;;9.13;62.24;100521.13;6341090;22;45531;-63
2022/11/19 02:07:56;;;;;;;;;15.25;11.75;;;;;9.07;62.00;100515.06;6341041;22;45261;-63
2022/11/19 02:10:57;;;;;;;;;14.50;13.50;;;;;9.03;61.95;100517.72;6341465;22;45308;-63
2022/11/19 02:13:29;;;;;;;;;11.50;11.50;;;;;9.01;61.88;100516.91;6341350;22;45333;-63
2022/11/19 02:16:05;;;;;;;;;13.00;12.50;;;;;8.94;61.78;100513.44;6340449;22;45329;-63
2022/11/19 02:18:45;;;;;;;;;15.75;12.75;;;;;8.94;62.06;100518.69;6340723;22;45191;-63
2022/11/19 02:21:11;;;;;;;;;11.50;9.00;;;;;8.93;61.77;100516.94;6341260;22;45273;-62
2022/11/19 02:24:02;;;;;;;;;17.50;13.00;;;;;8.93;61.95;100516.94;6340725;22;45237;-63
2022/11/19 02:26:58;;;;;;;;;11.25;11.25;;;;;8.89;62.05;100510.03;6341179;22;45145;-63
2022/11/19 02:29:30;;;;;;;;;11.25;9.00;;;;;8.86;61.89;100504.81;6340979;22;45112;-62
2022/11/19 02:32:17;;;;;;;;;11.00;9.75;;;;;8.74;61.99;100485.72;6341396;22;45291;-62
2022/11/19 02:34:50;;;;;;;;;14.25;11.75;;;;;8.82;61.95;100510.97;6341279;22;45273;-62
2022/11/19 02:37:27;;;;;;;;;14.00;12.00;;;;;8.81;62.04;100510.09;6340314;22;45238;-62
2022/11/19 02:40:01;;;;;;;;;17.25;14.25;;;;;8.82;62.14;100521.44;6338854;22;45295;-62
2022/11/19 02:42:32;;;;;;;;;13.75;11.25;;;;;8.79;62.14;100519.72;6341157;22;45309;-62
2022/11/19 02:45:06;;;;;;;;;17.00;13.00;;;;;8.78;62.09;100523.25;6341005;22;45249;-62
2022/11/19 02:47:40;;;;;;;;;12.00;11.25;;;;;8.74;62.23;100518.91;6338910;22;46978;-62
2022/11/19 02:50:16;;;;;;;;;13.75;10.75;;;;;8.72;61.96;100515.44;6340029;22;45206;-62
2022/11/19 02:52:43;;;;;;;;;12.25;12.25;;;;;8.69;62.16;100515.47;6340227;22;45191;-62
2022/11/19 02:55:14;;;;;;;;;11.75;11.00;;;;;8.69;62.07;100523.31;6340724;22;45266;-62
2022/11/19 02:57:47;;;;;;;;;12.75;12.00;;;;;8.67;61.95;100520.72;6340435;22;45297;-62
2022/11/19 03:05:56;;;;;;;;;15.00;10.00;;;;;8.61;62.08;100511.16;6340526;22;45324;-62
2022/11/19 03:08:22;;;;;;;;;11.50;9.00;;;;;8.61;62.33;100512.94;6340421;22;46114;-62
2022/11/19 03:11:00;;;;;;;;;14.00;11.00;;;;;8.60;62.14;100517.31;6340478;22;45317;-62
2022/11/19 03:16:41;;;;;;;;;10.00;8.50;;;;;8.59;62.20;100517.31;6340627;22;45241;-63
2022/11/19 03:19:29;;;;;;;;;12.00;11.00;;;;;8.57;61.86;100516.47;6338392;22;45344;-62
2022/11/19 03:21:59;;;;;;;;;15.75;11.25;;;;;8.57;62.36;100519.09;6340353;22;45397;-62
2022/11/19 03:24:34;;;;;;;;;9.00;8.50;;;;;8.57;62.33;100524.31;6340294;22;45257;-62
2022/11/19 03:27:26;;;;;;;;;4.75;2.00;;;;;8.55;62.32;100519.09;6341598;22;45270;-62
2022/11/19 03:29:55;;;;;;;;;14.25;10.50;;;;;8.56;62.38;100526.06;6341594;22;46139;-62
2022/11/19 03:32:29;;;;;;;;;11.75;10.25;;;;;8.56;62.41;100527.81;6341783;22;45163;-62
2022/11/19 03:35:06;;;;;;;;;10.25;8.75;;;;;8.56;62.50;100523.44;6342081;22;45255;-62
2022/11/19 03:37:34;;;;;;;;;10.25;9.00;;;;;8.57;62.60;100525.19;6341847;22;45205;-62
2022/11/19 03:40:01;;;;;;;;;7.50;6.50;;;;;8.58;62.63;100519.06;6341442;22;46941;-62
2022/11/19 03:42:28;;;;;;;;;8.00;8.00;;;;;8.60;62.71;100525.16;6341525;22;45194;-62
2022/11/19 03:45:01;;;;;;;;;12.75;10.00;;;;;8.64;62.65;100530.38;6342090;22;45462;-62
2022/11/19 03:47:33;;;;;;;;;13.25;12.00;;;;;8.64;62.46;100535.59;6339823;22;45373;-62
2022/11/19 03:50:05;;;;;;;;;10.75;8.00;;;;;8.67;62.46;100540.84;6341419;22;45335;-62
2022/11/19 03:52:32;;;;;;;;;11.25;9.75;;;;;8.69;62.40;100525.94;6341848;22;45231;-62
2022/11/19 03:54:57;;;;;;;;;10.50;9.75;;;;;8.73;62.71;100530.25;6342094;22;45198;-62
2022/11/19 03:57:25;;;;;;;;;9.75;9.00;;;;;8.74;62.63;100527.66;6341756;22;45518;-62
2022/11/19 03:59:50;;;;;;;;;10.50;10.00;;;;;8.76;62.72;100531.09;6341637;22;45258;-62
2022/11/19 04:02:16;;;;;;;;;8.00;7.00;;;;;8.81;62.52;100532.84;6340108;22;45321;-62
2022/11/19 04:04:42;;;;;;;;;12.25;11.25;;;;;8.83;62.63;100537.16;6342215;22;45301;-63
2022/11/19 04:07:07;;;;;;;;;10.75;9.00;;;;;8.84;62.57;100533.69;6341738;22;45187;-63
2022/11/19 04:09:33;;;;;;;;;7.50;7.50;;;;;8.89;62.64;100541.47;6341925;22;45941;-62
2022/11/19 04:11:58;;;;;;;;;11.50;9.50;;;;;8.89;62.74;100536.22;6340111;22;45480;-62
2022/11/19 04:14:23;;;;;;;;;12.00;11.50;;;;;8.93;62.76;100530.06;6342373;22;45155;-62
2022/11/19 04:16:49;;;;;;;;;11.00;9.50;;;;;8.96;63.03;100530.03;6342041;22;45232;-63
2022/11/19 04:19:16;;;;;;;;;9.00;8.75;;;;;8.99;62.68;100540.47;6341590;22;45233;-63
2022/11/19 04:21:41;;;;;;;;;8.50;8.50;;;;;9.01;62.89;100535.25;6341454;22;45269;-62
2022/11/19 04:24:07;;;;;;;;;10.00;7.75;;;;;9.04;62.71;100540.44;6342094;22;45286;-62
2022/11/19 04:26:32;;;;;;;;;10.00;10.00;;;;;9.08;62.98;100545.63;6342080;22;45179;-63
2022/11/19 04:28:58;;;;;;;;;8.75;7.25;;;;;9.11;62.55;100545.59;6341743;22;46173;-63
2022/11/19 04:31:23;;;;;;;;;10.50;8.00;;;;;9.14;62.91;100549.94;6339889;22;45253;-63
2022/11/19 04:33:48;;;;;;;;;8.75;7.00;;;;;9.16;62.99;100548.16;6342254;22;45123;-62
2022/11/19 04:36:14;;;;;;;;;12.00;11.00;;;;;9.20;62.82;100557.72;6342032;22;45110;-63
2022/11/19 04:38:39;;;;;;;;;10.25;9.25;;;;;9.19;62.84;100549.88;6340859;22;45094;-63
2022/11/19 04:41:05;;;;;;;;;9.25;9.25;;;;;9.23;62.73;100557.72;6341778;22;46097;-63
2022/11/19 04:43:30;;;;;;;;;9.75;7.75;;;;;9.27;62.65;100563.78;6339654;22;45133;-62
2022/11/19 04:45:55;;;;;;;;;13.75;12.00;;;;;9.30;62.90;100566.38;6342046;22;45257;-63
2022/11/19 04:48:20;;;;;;;;;8.25;7.25;;;;;9.33;62.93;100566.31;6339191;22;51475;-63
2022/11/19 04:50:46;;;;;;;;;11.75;10.25;;;;;9.34;62.92;100570.69;6341554;22;45203;-63
2022/11/19 04:53:11;;;;;;;;;8.00;8.00;;;;;9.39;62.81;100568.00;6339712;22;45274;-62
2022/11/19 04:55:36;;;;;;;;;10.50;10.00;;;;;9.42;62.79;100574.09;6342386;22;45392;-62
2022/11/19 04:58:02;;;;;;;;;8.50;7.75;;;;;9.41;62.74;100571.50;6340780;22;46244;-62
2022/11/19 05:00:27;;;;;;;;;8.00;7.00;;;;;9.47;62.89;100583.66;6341620;22;45188;-63
2022/11/19 05:02:52;;;;;;;;;9.75;8.25;;;;;9.49;62.75;100584.50;6342139;22;45163;-63
2022/11/19 05:05:18;;;;;;;;;12.75;11.00;;;;;9.50;63.02;100578.38;6341849;22;45200;-63
2022/11/19 05:07:43;;;;;;;;;11.50;8.75;;;;;9.51;62.80;100580.09;6341338;22;45205;-62
2022/11/19 05:10:09;;;;;;;;;12.50;11.50;;;;;9.52;62.70;100579.22;6341388;22;45478;-64
2022/11/19 05:12:34;;;;;;;;;13.25;8.75;;;;;9.50;62.86;100579.22;6341710;22;45237;-63
2022/11/19 05:15:00;;;;;;;;;13.25;8.50;;;;;9.50;62.72;100573.13;6341725;22;45258;-62
2022/11/19 05:17:25;;;;;;;;;9.00;7.00;;;;;9.50;63.13;100581.00;6340907;22;46788;-62
2022/11/19 05:19:50;;;;;;;;;12.75;8.50;;;;;9.50;62.88;100571.38;6341383;22;45304;-62
2022/11/19 05:22:15;;;;;;;;;11.75;8.50;;;;;9.51;62.94;100577.47;6341643;22;45208;-62
2022/11/19 05:24:41;;;;;;;;;11.75;8.50;;;;;9.50;62.77;100576.63;6341643;22;45609;-62
2022/11/19 05:27:07;;;;;;;;;8.50;8.25;;;;;9.48;62.89;100581.00;6340770;22;46115;-62
2022/11/19 05:29:32;;;;;;;;;10.00;7.25;;;;;9.51;63.08;100578.34;6339526;22;45292;-62
2022/11/19 05:31:57;;;;;;;;;9.25;8.00;;;;;9.51;62.72;100569.59;6341193;22;48666;-63
2022/11/19 05:34:23;;;;;;;;;8.50;7.25;;;;;9.51;62.77;100580.09;6339151;22;57342;-62
2022/11/19 05:36:48;;;;;;;;;9.50;7.00;;;;;9.52;62.92;100593.22;6338898;22;46268;-62
2022/11/19 05:39:13;;;;;;;;;10.25;9.50;;;;;9.52;62.70;100574.84;6341335;22;45186;-62
2022/11/19 05:41:39;;;;;;;;;11.75;11.50;;;;;9.53;62.70;100580.94;6341528;22;45125;-62
2022/11/19 05:44:04;;;;;;;;;10.75;8.25;;;;;9.51;62.73;100586.22;6341178;22;46854;-62
2022/11/19 05:46:29;;;;;;;;;8.75;7.00;;;;;9.52;62.93;100589.69;6341539;22;46194;-62
2022/11/19 05:48:55;;;;;;;;;12.00;9.50;;;;;9.51;62.83;100590.59;6338072;22;45132;-62
2022/11/19 05:51:20;;;;;;;;;9.75;7.50;;;;;9.49;62.70;100589.75;6339138;22;45406;-63
2022/11/19 05:53:47;;;;;;;;;8.00;8.00;;;;;9.47;62.97;100586.28;6340890;22;45439;-62
2022/11/19 05:56:12;;;;;;;;;10.50;7.75;;;;;9.44;62.88;100588.03;6341317;22;45233;-62
2022/11/19 05:58:37;;;;;;;;;9.75;7.50;;;;;9.43;62.94;100595.94;6341505;22;45366;-62
2022/11/19 06:01:03;;;;;;;;;8.25;8.25;;;;;9.44;62.88;100593.28;6341649;22;45983;-62
2022/11/19 06:03:29;;;;;;;;;9.25;9.25;;;;;9.44;62.89;100590.66;6340180;22;45209;-62
2022/11/19 06:05:54;;;;;;;;;9.00;8.00;;;;;9.45;62.73;100599.41;6341388;22;45989;-62
2022/11/19 06:08:19;;;;;;;;;16.75;15.00;;;;;9.44;62.52;100601.16;6341196;22;45250;-63
2022/11/19 06:10:45;;;;;;;;;7.75;7.00;;;;;9.45;62.75;100599.41;6341810;22;45254;-63
2022/11/19 06:13:10;;;;;;;;;12.00;12.00;;;;;9.47;62.69;100591.50;6341141;22;45274;-63
2022/11/19 06:15:35;;;;;;;;;12.25;9.50;;;;;9.47;62.70;100592.41;6341445;22;45260;-64
2022/11/19 06:18:01;;;;;;;;;7.50;6.75;;;;;9.43;62.74;100591.56;6340432;22;45229;-62
2022/11/19 06:20:26;;;;;;;;;13.25;13.25;;;;;9.46;62.75;100593.28;6341430;22;45096;-62
2022/11/19 06:22:52;;;;;;;;;13.25;11.50;;;;;9.45;62.50;100588.91;6340969;22;45329;-62
2022/11/19 06:25:17;;;;;;;;;9.00;8.50;;;;;9.46;62.78;100597.66;6341257;22;46042;-62
2022/11/19 06:27:42;;;;;;;;;11.75;10.50;;;;;9.44;62.94;100597.66;6339499;22;45298;-62
2022/11/19 06:30:09;;;;;;;;;8.50;7.75;;;;;9.41;62.87;100600.34;6338904;22;45194;-62
2022/11/19 06:32:34;;;;;;;;;1.00;0.75;;;;;9.43;62.70;100609.94;6339119;22;45668;-62
2022/11/19 06:35:00;;;;;;;;;9.25;5.50;;;;;9.40;62.85;100609.94;6340797;22;45863;-62
2022/11/19 06:37:25;;;;;;;;;9.25;7.50;;;;;9.37;62.54;100603.88;6340667;22;46741;-62
2022/11/19 06:39:50;;;;;;;;;14.00;11.25;;;;;9.35;62.54;100617.00;6340968;22;45410;-62
2022/11/19 06:44:59;;;;;;;;;13.00;12.00;;;;;9.29;62.69;100614.44;6341079;22;45199;-62
2022/11/19 06:47:25;;;;;;;;;11.25;8.50;;;;;9.29;62.69;100618.84;6340725;22;45159;-61
2022/11/19 06:49:50;;;;;;;;;9.50;7.00;;;;;9.28;62.83;100620.56;6338956;22;45240;-62
2022/11/19 06:52:16;;;;;;;;;9.00;8.50;;;;;9.25;62.78;100618.00;6341164;22;45104;-62
2022/11/19 06:54:41;;;;;;;;;8.75;8.75;;;;;9.25;62.77;100620.63;6341195;22;46275;-62
2022/11/19 06:57:06;;;;;;;;;12.50;8.00;;;;;9.22;62.98;100613.66;6340601;22;45222;-62
2022/11/19 06:59:32;;;;;;;;;8.25;8.25;;;;;9.23;62.55;100619.75;6341273;22;45253;-62
2022/11/19 07:01:57;;;;;;;;;9.75;9.25;;;;;9.24;62.58;100631.97;6342002;22;45241;-62
2022/11/19 07:04:22;;;;;;;;;10.00;9.75;;;;;9.23;62.96;100639.00;6341867;22;46192;-62
2022/11/19 07:06:47;;;;;;;;;14.00;9.50;;;;;9.21;62.76;100638.13;6342123;22;45220;-62
2022/11/19 07:09:13;;;;;;;;;14.00;12.75;;;;;9.22;62.88;100645.13;6342247;22;45354;-62
2022/11/19 07:11:38;;;;;;;;;11.50;11.50;;;;;9.23;62.96;100646.84;6341761;22;45527;-62
2022/11/19 07:14:04;;;;;;;;;12.00;11.75;;;;;9.22;63.18;100652.09;6342076;22;45248;-62
2022/11/19 07:16:31;;;;;;;;;14.25;11.00;;;;;9.18;62.89;100648.66;6342233;22;45306;-62
2022/11/19 07:19:02;;;;;;;;;10.50;9.00;;;;;9.19;63.21;100649.53;6340170;22;45276;-62
2022/11/19 07:21:28;;;;;;;;;13.75;11.25;;;;;9.18;63.31;100650.41;6341866;22;45327;-62
2022/11/19 07:23:55;;;;;;;;;10.00;8.25;;;;;9.18;63.15;100653.03;6342011;22;45249;-62
2022/11/19 07:26:20;;;;;;;;;14.50;12.00;;;;;9.19;63.05;100665.25;6341904;22;45294;-62
2022/11/19 07:28:46;;;;;;;;;12.00;12.00;;;;;9.19;63.22;100660.00;6341715;22;45215;-62
2022/11/19 07:31:11;;;;;;;;;13.00;12.75;;;;;9.17;63.27;100659.13;6340201;22;45597;-62
2022/11/19 07:33:38;;;;;;;;;10.00;8.00;;;;;9.17;63.31;100669.63;6341466;22;45938;-62
2022/11/19 07:36:05;;;;;;;;;46.00;35.00;;;;;9.23;63.37;100669.56;6341727;22;45234;-62
2022/11/19 07:38:30;;;;;;;;;13.75;12.75;;;;;9.23;63.18;100673.09;6341142;22;45176;-62
2022/11/19 07:40:56;;;;;;;;;15.25;13.75;;;;;9.24;63.72;100674.81;6339981;22;45377;-62
2022/11/19 07:43:22;;;;;;;;;13.00;12.25;;;;;9.26;63.61;100678.28;6341464;22;45843;-62
2022/11/19 07:45:47;;;;;;;;;11.50;11.50;;;;;9.27;63.62;100679.16;6342116;22;45257;-62
2022/11/19 07:48:13;;;;;;;;;14.75;12.00;;;;;9.33;63.62;100678.22;6341391;22;45345;-62
2022/11/19 07:50:39;;;;;;;;;9.25;8.50;;;;;9.36;63.43;100686.94;6340593;22;45239;-62
2022/11/19 07:53:05;;;;;;;;;11.75;10.00;;;;;9.39;63.60;100689.50;6341925;22;45904;-62
2022/11/19 07:55:30;;;;;;;;;8.50;8.50;;;;;9.43;63.77;100692.97;6342528;22;45265;-62
2022/11/19 07:57:56;;;;;;;;;12.00;9.25;;;;;9.46;63.70;100702.56;6342028;22;45397;-62
2022/11/19 08:00:22;;;;;;;;;13.00;9.00;;;;;9.50;63.49;100701.66;6342060;22;45326;-62
2022/11/19 08:02:48;;;;;;;;;9.25;8.25;;;;;9.51;63.57;100700.75;6339957;22;47042;-62
2022/11/19 08:05:14;;;;;;;;;10.50;10.00;;;;;9.54;63.75;100700.75;6342073;22;45158;-63
2022/11/19 08:07:40;;;;;;;;;10.00;8.50;;;;;9.58;63.85;100700.72;6341893;22;45258;-62
2022/11/19 08:10:05;;;;;;;;;13.00;8.75;;;;;9.62;63.75;100700.66;6341966;22;45104;-63
2022/11/19 08:12:31;;;;;;;;;7.00;6.75;;;;;9.64;63.75;100706.78;6341026;22;46074;-63
2022/11/19 08:14:57;;;;;;;;;10.00;8.50;;;;;9.70;63.60;100711.97;6341437;22;45321;-62
2022/11/19 08:20:07;;;;;;;;;9.50;8.00;;;;;9.79;63.51;100729.34;6342090;22;45253;-62
2022/11/19 08:22:32;;;;;;;;;9.50;9.50;;;;;9.82;64.13;100726.69;6341127;22;46839;-62
2022/11/19 08:24:57;;;;;;;;;9.75;9.00;;;;;9.86;63.81;100741.50;6340376;22;45261;-62
2022/11/19 08:27:23;;;;;;;;;14.50;10.50;;;;;9.87;63.82;100744.13;6341999;22;45231;-62
2022/11/19 08:29:48;;;;;;;;;14.00;14.00;;;;;9.90;63.86;100745.84;6341480;22;45409;-62
2022/11/19 08:32:13;;;;;;;;;12.50;12.00;;;;;9.93;63.72;100745.81;6339547;22;46893;-61
2022/11/19 08:34:39;;;;;;;;;11.00;10.25;;;;;9.95;63.69;100748.41;6341911;22;45184;-62
2022/11/19 08:37:04;;;;;;;;;10.50;10.50;;;;;9.97;63.64;100750.13;6341636;22;45374;-63
2022/11/19 08:39:30;;;;;;;;;16.00;13.50;;;;;9.98;63.71;100749.25;6341452;22;45234;-62
2022/11/19 08:44:40;;;;;;;;;12.75;12.75;;;;;10.07;63.59;100753.50;6341882;22;45343;-62
2022/11/19 08:47:05;;;;;;;;;13.75;11.25;;;;;10.09;63.94;100760.47;6341490;22;45213;-62
2022/11/19 08:49:31;;;;;;;;;14.25;13.50;;;;;10.15;63.81;100763.94;6341086;22;45371;-62
2022/11/19 08:51:56;;;;;;;;;13.75;13.00;;;;;10.20;63.66;100767.34;6341368;22;45359;-61
2022/11/19 08:54:22;;;;;;;;;15.25;10.00;;;;;10.24;63.73;100771.72;6339551;22;45164;-62
2022/11/19 08:56:47;;;;;;;;;15.25;13.75;;;;;10.28;63.77;100776.03;6341549;22;45442;-62
2022/11/19 08:59:12;;;;;;;;;14.50;10.75;;;;;10.28;63.69;100765.53;6341152;22;45249;-62
2022/11/19 09:01:38;;;;;;;;;12.75;12.75;;;;;10.37;63.62;100775.06;6341694;22;45765;-62
2022/11/19 09:04:04;;;;;;;;;13.50;10.50;;;;;10.39;63.89;100776.78;6341764;22;45154;-62
2022/11/19 09:06:32;;;;;;;;;16.75;14.75;;;;;10.47;63.60;100784.56;6341326;22;45326;-62
2022/11/19 09:08:57;;;;;;;;;10.00;9.00;;;;;10.51;63.93;100781.00;6341798;22;45337;-62
2022/11/19 09:11:22;;;;;;;;;8.50;7.75;;;;;10.53;63.70;100770.50;6341401;22;45253;-62
2022/11/19 09:13:48;;;;;;;;;49.50;40.75;;;;;10.60;63.67;100774.75;6341610;22;45293;-62
2022/11/19 09:16:13;;;;;;;;;8.25;8.00;;;;;10.66;63.51;100779.06;6341957;22;45205;-62
2022/11/19 09:18:40;;;;;;;;;15.50;7.75;;;;;10.67;63.70;100773.78;6340886;22;45241;-62
2022/11/19 09:21:08;;;;;;;;;15.75;11.25;;;;;10.71;63.66;100775.47;6341356;22;46269;-62
2022/11/19 09:23:33;;;;;;;;;10.25;9.25;;;;;10.77;63.62;100778.91;6341100;22;45203;-63
2022/11/19 09:26:02;;;;;;;;;21.00;17.50;;;;;10.81;63.67;100778.00;6339795;22;45254;-62
2022/11/19 09:28:29;;;;;;;;;11.25;9.25;;;;;10.85;63.76;100774.41;6340896;22;45290;-62
2022/11/19 09:31:00;;;;;;;;;9.75;8.50;;;;;10.90;63.61;100772.59;6341084;22;46349;-63
2022/11/19 09:33:26;;;;;;;;;11.75;9.75;;;;;10.95;63.61;100780.41;6341703;22;45136;-62
2022/11/19 09:35:51;;;;;;;;;13.00;12.50;;;;;10.97;63.15;100781.25;6341487;22;45404;-62
2022/11/19 09:38:17;;;;;;;;;11.75;11.75;;;;;11.00;63.66;100782.06;6341131;22;45245;-62
2022/11/19 09:40:45;;;;;;;;;13.75;12.00;;;;;11.05;63.64;100784.63;6341377;22;46205;-62
2022/11/19 09:43:21;;;;;;;;;15.75;12.75;;;;;11.12;63.62;100782.75;6341391;22;45268;-62
2022/11/19 09:46:06;;;;;;;;;11.50;11.50;;;;;11.16;63.45;100784.47;6339638;22;45327;-60
2022/11/19 09:48:35;;;;;;;;;12.75;12.25;;;;;11.20;63.49;100791.41;6340451;22;45174;-60
2022/11/19 09:51:12;;;;;;;;;13.00;11.75;;;;;11.23;63.63;100786.09;6341489;22;45447;-63
2022/11/19 09:53:47;;;;;;;;;15.00;11.00;;;;;11.31;63.48;100793.88;6340983;22;45378;-63
2022/11/19 09:56:29;;;;;;;;;22.50;18.75;;;;;11.35;63.47;100782.41;6341529;22;45217;-62
2022/11/19 09:58:56;;;;;;;;;13.75;12.50;;;;;11.42;63.54;100784.06;6340464;22;45139;-60
2022/11/19 10:01:22;;;;;;;;;15.75;13.75;;;;;11.47;63.44;100789.22;6341209;22;45395;-60
2022/11/19 10:03:50;;;;;;;;;12.75;11.25;;;;;11.51;63.45;100785.66;6341613;22;45361;-62
2022/11/19 10:06:33;;;;;;;;;17.00;14.25;;;;;11.56;63.27;100791.72;6341134;22;45196;-62
2022/11/19 10:09:16;;;;;;;;;14.75;13.00;;;;;11.61;63.25;100791.59;6340971;22;45210;-61
2022/11/19 10:11:49;;;;;;;;;12.75;12.25;;;;;11.64;63.27;100789.78;6341020;22;46453;-62
2022/11/19 10:14:20;;;;;;;;;0.00;0.00;;;;;11.69;63.20;100790.56;6341444;22;45225;-62
2022/11/19 10:17:07;;;;;;;;;9.25;7.00;;;;;11.74;63.33;100787.88;6341169;22;45329;-62
2022/11/19 10:19:42;;;;;;;;;9.00;7.00;;;;;11.76;63.28;100788.72;6340925;22;45404;-62
2022/11/19 10:22:22;;;;;;;;;11.50;9.00;;;;;11.80;63.13;100793.03;6340342;22;46281;-62
2022/11/19 10:25:13;;;;;;;;;7.25;7.25;;;;;11.84;63.13;100793.84;6340489;22;45259;-62
2022/11/19 10:27:47;;;;;;;;;10.00;7.25;;;;;11.88;63.15;100792.88;6332497;22;45162;-62
2022/11/19 10:30:22;;;;;;;;;9.00;7.25;;;;;11.91;63.15;100794.59;6340822;22;45245;-61
2022/11/19 10:33:03;;;;;;;;;9.00;8.75;;;;;11.94;63.00;100787.50;6341006;22;45238;-62
2022/11/19 10:35:35;;;;;;;;;10.75;9.75;;;;;12.02;63.05;100785.63;6340516;22;45258;-62
2022/11/19 10:38:05;;;;;;;;;10.25;8.00;;;;;12.10;62.90;100788.09;6340048;22;45284;-62
2022/11/19 10:40:40;;;;;;;;;9.25;9.25;;;;;12.19;63.26;100789.69;6342367;22;45261;-62
2022/11/19 10:43:31;;;;;;;;;14.00;10.25;;;;;12.29;63.15;100785.06;6342108;22;45323;-62
2022/11/19 10:45:59;;;;;;;;;10.25;10.00;;;;;12.39;62.95;100785.75;6340555;22;45292;-62
2022/11/19 10:48:41;;;;;;;;;10.50;9.00;;;;;12.46;62.95;100782.09;6342020;22;45257;-62
2022/11/19 10:51:15;;;;;;;;;9.50;8.25;;;;;12.57;62.71;100788.00;6340882;22;45294;-62
2022/11/19 10:53:41;;;;;;;;;11.75;11.00;;;;;12.64;62.43;100784.34;6342093;22;45347;-62
2022/11/19 10:56:22;;;;;;;;;11.25;10.50;;;;;12.72;63.01;100780.69;6341897;22;45270;-62
2022/11/19 10:58:54;;;;;;;;;12.75;11.25;;;;;12.75;62.82;100780.59;6341918;22;45231;-62
2022/11/19 11:01:32;;;;;;;;;11.50;10.75;;;;;12.82;62.71;100780.41;6342098;22;45269;-62
2022/11/19 11:04:11;;;;;;;;;12.75;12.00;;;;;12.90;62.62;100777.59;6342135;22;45198;-62
2022/11/19 11:06:49;;;;;;;;;12.50;11.00;;;;;12.98;62.68;100778.31;6342044;22;45223;-61
2022/11/19 11:09:40;;;;;;;;;12.75;9.75;;;;;13.06;62.56;100786.03;6342070;22;45238;-61
2022/11/19 11:15:06;;;;;;;;;13.75;11.50;;;;;13.20;62.69;100780.41;6342106;22;45293;-60
2022/11/19 11:17:34;;;;;;;;;12.00;10.25;;;;;13.24;62.69;100778.56;6341577;22;45454;-61
2022/11/19 11:19:59;;;;;;;;;13.75;10.00;;;;;13.34;62.48;100785.34;6341955;22;45405;-60
2022/11/19 11:22:26;;;;;;;;;12.75;10.50;;;;;13.41;62.49;100788.72;6341468;22;45182;-60
2022/11/19 11:24:51;;;;;;;;;8.75;8.75;;;;;13.44;62.13;100781.59;6341130;22;45293;-61
2022/11/19 11:27:26;;;;;;;;;11.00;11.00;;;;;13.50;62.26;100785.88;6341928;22;45199;-61
2022/11/19 11:30:04;;;;;;;;;15.25;12.50;;;;;13.53;61.96;100774.38;6339996;22;45322;-61
2022/11/19 11:32:30;;;;;;;;;12.00;9.00;;;;;13.57;62.06;100771.63;6341738;22;45273;-60
2022/11/19 11:34:56;;;;;;;;;12.25;11.00;;;;;13.61;62.04;100773.25;6339955;22;46865;-61
2022/11/19 11:37:24;;;;;;;;;9.75;9.50;;;;;13.66;61.61;100773.16;6341883;22;45166;-60
2022/11/19 11:39:54;;;;;;;;;17.75;16.75;;;;;13.74;61.91;100772.94;6341559;22;45156;-60
2022/11/19 11:42:22;;;;;;;;;17.25;14.25;;;;;13.86;61.85;100777.91;6342076;22;45257;-61
2022/11/19 11:44:58;;;;;;;;;12.50;10.25;;;;;13.98;61.30;100776.69;6341784;22;45099;-61
2022/11/19 11:47:30;;;;;;;;;10.00;9.00;;;;;14.13;61.58;100770.09;6341851;22;45176;-62